createdAt,value
2022-09-07T00:00:40.015Z,67.39
2022-09-07T00:03:07.242Z,67.64
2022-09-07T00:05:34.258Z,66.81
2022-09-07T00:08:01.118Z,67.24
2022-09-07T00:10:28.974Z,66.93
2022-09-07T00:12:55.514Z,66.40
2022-09-07T00:15:22.188Z,65.80
2022-09-07T00:17:48.752Z,66.22
2022-09-07T00:20:15.531Z,66.23
2022-09-07T00:22:42.232Z,66.77
2022-09-07T00:25:09.068Z,67.06
2022-09-07T00:27:35.647Z,67.29
2022-09-07T00:30:02.271Z,68.52
2022-09-07T00:32:28.865Z,69.13
2022-09-07T00:34:55.432Z,67.13
2022-09-07T00:37:22.136Z,68.06
2022-09-07T00:39:49.761Z,68.06
2022-09-07T00:42:18.839Z,67.69
2022-09-07T00:45:10.422Z,67.59
2022-09-07T00:47:42.552Z,68.26
2022-09-07T00:50:24.335Z,67.90
2022-09-07T00:52:56.853Z,67.86
2022-09-07T00:55:23.748Z,68.14
2022-09-07T00:57:54.736Z,68.17
2022-09-07T01:00:22.423Z,68.37
2022-09-07T01:02:52.198Z,68.98
2022-09-07T01:05:45.593Z,68.69
2022-09-07T01:08:13.349Z,68.75
2022-09-07T01:10:40.508Z,68.83
2022-09-07T01:13:07.153Z,69.65
2022-09-07T01:15:46.261Z,69.93
2022-09-07T01:18:27.153Z,69.73
2022-09-07T01:21:21.087Z,69.57
2022-09-07T01:24:12.572Z,69.84
2022-09-07T01:26:45.387Z,69.55
2022-09-07T01:29:23.687Z,69.77
2022-09-07T01:31:50.174Z,69.98
2022-09-07T01:34:26.473Z,69.63
2022-09-07T01:36:55.988Z,69.50
2022-09-07T01:39:29.692Z,69.36
2022-09-07T01:42:06.170Z,69.13
2022-09-07T01:44:58.421Z,69.74
2022-09-07T01:47:46.102Z,69.06
2022-09-07T01:50:19.277Z,68.75
2022-09-07T01:53:17.415Z,68.60
2022-09-07T01:55:50.329Z,68.23
2022-09-07T01:58:35.299Z,67.38
2022-09-07T02:01:09.676Z,67.76
2022-09-07T02:03:40.159Z,67.36
2022-09-07T02:06:25.045Z,66.91
2022-09-07T02:09:20.551Z,67.30
2022-09-07T02:11:50.209Z,67.45
2022-09-07T02:14:34.215Z,65.84
2022-09-07T02:17:06.895Z,66.80
2022-09-07T02:19:40.967Z,66.22
2022-09-07T02:22:14.014Z,67.02
2022-09-07T02:24:46.945Z,66.90
2022-09-07T02:27:34.414Z,66.49
2022-09-07T02:30:01.046Z,67.15
2022-09-07T02:32:27.671Z,66.87
2022-09-07T02:34:54.219Z,66.61
2022-09-07T02:37:21.358Z,67.42
2022-09-07T02:39:49.404Z,68.50
2022-09-07T02:42:16.153Z,67.70
2022-09-07T02:44:45.571Z,67.88
2022-09-07T02:47:20.973Z,68.16
2022-09-07T02:50:15.351Z,67.59
2022-09-07T02:52:50.659Z,67.71
2022-09-07T02:55:54.335Z,67.06
2022-09-07T02:58:29.153Z,67.30
2022-09-07T03:01:01.686Z,66.67
2022-09-07T03:03:53.671Z,66.53
2022-09-07T03:06:30.957Z,67.50
2022-09-07T03:09:01.919Z,67.74
2022-09-07T03:11:29.397Z,66.64
2022-09-07T03:14:20.819Z,68.98
2022-09-07T03:16:49.905Z,66.74
2022-09-07T03:19:16.788Z,66.86
2022-09-07T03:21:43.469Z,67.11
2022-09-07T03:24:10.619Z,66.96
2022-09-07T03:26:41.820Z,68.04
2022-09-07T03:29:08.405Z,68.29
2022-09-07T03:31:35.971Z,68.21
2022-09-07T03:34:02.953Z,68.70
2022-09-07T03:36:30.592Z,68.96
2022-09-07T03:38:59.468Z,69.69
2022-09-07T03:41:27.676Z,70.79
2022-09-07T03:43:54.479Z,70.98
2022-09-07T03:46:21.544Z,71.27
2022-09-07T03:48:49.226Z,71.97
2022-09-07T03:51:18.267Z,71.18
2022-09-07T03:53:46.599Z,71.32
2022-09-07T03:56:13.135Z,72.38
2022-09-07T03:58:39.907Z,72.39
2022-09-07T04:01:09.600Z,72.14
2022-09-07T04:03:36.876Z,72.38
2022-09-07T04:06:04.263Z,72.34
2022-09-07T04:08:34.714Z,72.28
2022-09-07T04:11:04.944Z,72.00
2022-09-07T04:13:33.971Z,72.23
2022-09-07T04:16:00.664Z,71.96
2022-09-07T04:18:27.328Z,71.58
2022-09-07T04:20:58.812Z,71.01
2022-09-07T04:23:25.434Z,69.05
2022-09-07T04:25:52.678Z,69.56
2022-09-07T04:28:20.801Z,68.97
2022-09-07T04:30:47.917Z,69.36
2022-09-07T04:33:14.940Z,69.73
2022-09-07T04:35:42.911Z,69.11
2022-09-07T04:38:14.641Z,68.05
2022-09-07T04:40:41.455Z,68.52
2022-09-07T04:43:09.586Z,67.54
2022-09-07T04:45:37.513Z,68.21
2022-09-07T04:48:05.245Z,69.26
2022-09-07T04:50:32.618Z,68.95
2022-09-07T04:52:59.179Z,71.70
2022-09-07T04:55:25.770Z,71.77
2022-09-07T04:57:52.387Z,72.35
2022-09-07T05:00:19.542Z,72.53
2022-09-07T05:02:46.126Z,71.85
2022-09-07T05:05:12.830Z,72.25
2022-09-07T05:07:39.417Z,72.01
2022-09-07T05:10:06.223Z,72.12
2022-09-07T05:12:32.790Z,71.99
2022-09-07T05:14:59.351Z,72.34
2022-09-07T05:17:25.934Z,72.58
2022-09-07T05:19:52.558Z,72.43
2022-09-07T05:22:19.329Z,72.34
2022-09-07T05:24:47.731Z,71.69
2022-09-07T05:27:14.299Z,71.47
2022-09-07T05:32:27.452Z,71.72
2022-09-07T05:34:53.997Z,71.26
2022-09-07T05:37:20.710Z,70.53
2022-09-07T05:39:48.206Z,70.96
2022-09-07T05:42:14.993Z,71.27
2022-09-07T05:47:13.191Z,70.44
2022-09-07T05:49:40.087Z,70.14
2022-09-07T05:52:06.948Z,70.12
2022-09-07T05:54:33.612Z,70.91
2022-09-07T05:57:00.179Z,69.68
2022-09-07T05:59:26.742Z,69.95
2022-09-07T06:01:53.502Z,70.14
2022-09-07T06:04:20.106Z,68.94
2022-09-07T06:06:59.355Z,69.21
2022-09-07T06:09:31.469Z,67.11
2022-09-07T06:11:58.086Z,67.59
2022-09-07T06:14:25.008Z,67.08
2022-09-07T06:16:51.609Z,67.78
2022-09-07T06:19:18.247Z,67.89
2022-09-07T06:21:44.805Z,65.46
2022-09-07T06:24:11.464Z,65.96
2022-09-07T06:26:38.036Z,67.04
2022-09-07T06:29:04.778Z,67.15
2022-09-07T06:31:31.971Z,67.57
2022-09-07T06:33:58.898Z,65.39
2022-09-07T06:36:29.896Z,65.06
2022-09-07T06:38:59.131Z,64.77
2022-09-07T06:44:15.310Z,66.18
2022-09-07T06:49:28.651Z,65.57
2022-09-07T06:51:55.472Z,64.99
2022-09-07T06:57:09.429Z,62.93
2022-09-07T06:59:37.180Z,63.02
2022-09-07T07:02:05.350Z,62.76
2022-09-07T07:04:35.129Z,63.57
2022-09-07T07:07:04.599Z,63.19
2022-09-07T07:09:31.136Z,63.05
2022-09-07T07:11:57.675Z,62.77
2022-09-07T07:14:24.208Z,60.51
2022-09-07T07:16:50.809Z,60.49
2022-09-07T07:19:17.469Z,59.94
2022-09-07T07:22:07.973Z,60.43
2022-09-07T07:24:30.651Z,59.07
2022-09-07T07:26:57.539Z,58.11
2022-09-07T07:29:27.960Z,57.34
2022-09-07T07:31:54.913Z,58.22
2022-09-07T07:34:21.608Z,57.41
2022-09-07T07:36:48.260Z,57.52
2022-09-07T07:42:03.131Z,57.23
2022-09-07T07:44:31.534Z,55.52
2022-09-07T07:46:58.247Z,56.25
2022-09-07T07:49:24.918Z,55.85
2022-09-07T07:54:41.457Z,55.00
2022-09-07T07:57:08.596Z,55.54
2022-09-07T07:59:35.681Z,56.25
2022-09-07T08:02:04.837Z,56.39
2022-09-07T08:04:35.512Z,56.31
2022-09-07T08:07:08.638Z,56.46
2022-09-07T08:09:36.937Z,56.05
2022-09-07T08:12:03.862Z,56.50
2022-09-07T08:14:30.351Z,55.83
2022-09-07T08:16:56.932Z,55.88
2022-09-07T08:19:23.403Z,55.50
2022-09-07T08:21:49.865Z,55.56
2022-09-07T08:24:16.343Z,55.72
2022-09-07T08:26:42.790Z,56.90
2022-09-07T08:29:09.264Z,57.96
2022-09-07T08:31:35.783Z,58.14
2022-09-07T08:34:02.261Z,58.89
2022-09-07T08:36:31.686Z,59.45
2022-09-07T08:38:58.135Z,59.12
2022-09-07T08:42:03.060Z,60.03
2022-09-07T08:44:54.208Z,61.97
2022-09-07T08:47:45.718Z,61.99
2022-09-07T08:50:39.667Z,64.22
2022-09-07T08:53:13.961Z,62.36
2022-09-07T08:55:51.007Z,64.01
2022-09-07T08:58:55.576Z,62.81
2022-09-07T09:01:32.285Z,65.95
2022-09-07T09:07:10.708Z,67.03
2022-09-07T09:09:52.264Z,69.51
2022-09-07T09:12:24.696Z,65.67
2022-09-07T09:14:54.124Z,69.40
2022-09-07T09:17:32.319Z,69.24
2022-09-07T09:20:24.010Z,66.69
2022-09-07T09:23:17.340Z,67.78
2022-09-07T09:26:00.483Z,70.14
2022-09-07T09:28:28.943Z,69.63
2022-09-07T09:30:59.602Z,68.83
2022-09-07T09:33:28.018Z,68.50
2022-09-07T09:35:57.356Z,69.66
2022-09-07T09:38:34.425Z,71.53
2022-09-07T09:41:07.688Z,68.06
2022-09-07T09:43:40.845Z,68.18
2022-09-07T09:46:27.263Z,67.69
2022-09-07T09:49:00.126Z,67.67
2022-09-07T09:54:36.265Z,66.60
2022-09-07T09:57:03.699Z,68.06
2022-09-07T10:05:38.592Z,67.52
2022-09-07T10:08:16.379Z,65.74
2022-09-07T10:10:58.347Z,66.16
2022-09-07T10:13:46.913Z,64.01
2022-09-07T10:16:14.611Z,64.92
2022-09-07T10:18:58.185Z,65.82
2022-09-07T10:21:30.526Z,63.06
2022-09-07T10:24:05.724Z,65.87
2022-09-07T10:26:39.767Z,64.97
2022-09-07T10:29:14.308Z,65.72
2022-09-07T10:32:13.756Z,64.93
2022-09-07T10:34:58.089Z,63.96
2022-09-07T10:37:57.168Z,65.41
2022-09-07T10:40:45.301Z,64.69
2022-09-07T10:43:21.070Z,65.80
2022-09-07T10:45:54.195Z,65.55
2022-09-07T10:48:29.718Z,65.97
2022-09-07T10:51:05.043Z,64.45
2022-09-07T10:56:47.483Z,65.17
2022-09-07T11:00:07.452Z,66.11
2022-09-07T11:05:56.832Z,65.88
2022-09-07T11:09:15.703Z,64.78
2022-09-07T11:14:20.173Z,65.43
2022-09-07T11:17:01.112Z,66.17
2022-09-07T11:19:35.828Z,66.23
2022-09-07T11:22:20.152Z,65.92
2022-09-07T11:27:47.372Z,63.53
2022-09-07T11:30:24.816Z,63.98
2022-09-07T11:33:18.432Z,64.36
2022-09-07T11:36:02.214Z,64.43
2022-09-07T11:38:34.541Z,64.30
2022-09-07T11:41:21.155Z,63.35
2022-09-07T11:44:13.516Z,61.89
2022-09-07T11:46:53.512Z,62.63
2022-09-07T11:49:26.576Z,61.55
2022-09-07T11:52:05.043Z,63.94
2022-09-07T11:54:41.329Z,62.54
2022-09-07T11:57:10.504Z,63.03
2022-09-07T11:59:48.003Z,62.51
2022-09-07T12:02:58.410Z,61.78
2022-09-07T12:06:14.914Z,61.68
2022-09-07T12:08:56.505Z,62.29
2022-09-07T12:11:29.085Z,62.91
2022-09-07T12:14:20.742Z,61.95
2022-09-07T12:17:35.056Z,61.70
2022-09-07T12:20:11.877Z,61.91
2022-09-07T12:22:55.801Z,61.88
2022-09-07T12:25:22.446Z,62.16
2022-09-07T12:27:49.383Z,60.64
2022-09-07T12:30:15.775Z,61.12
2022-09-07T12:32:57.059Z,60.08
2022-09-07T12:35:27.885Z,60.44
2022-09-07T12:38:14.929Z,59.25
2022-09-07T12:40:58.734Z,59.98
2022-09-07T12:43:27.960Z,60.53
2022-09-07T12:45:56.678Z,61.18
2022-09-07T12:48:38.557Z,60.56
2022-09-07T12:51:10.124Z,59.92
2022-09-07T12:53:36.505Z,57.74
2022-09-07T12:56:16.629Z,57.01
2022-09-07T12:58:43.424Z,57.47
2022-09-07T13:01:22.074Z,58.07
2022-09-07T13:04:06.025Z,59.05
2022-09-07T13:07:06.086Z,58.76
2022-09-07T13:09:36.621Z,59.01
2022-09-07T13:12:57.649Z,56.86
2022-09-07T13:15:45.808Z,57.57
2022-09-07T13:18:27.371Z,59.75
2022-09-07T13:21:08.849Z,59.61
2022-09-07T13:23:37.854Z,60.09
2022-09-07T13:26:08.640Z,57.18
2022-09-07T13:28:58.377Z,58.07
2022-09-07T13:31:43.497Z,56.67
2022-09-07T13:34:34.864Z,54.85
2022-09-07T13:37:03.248Z,56.03
2022-09-07T13:39:39.060Z,56.33
2022-09-07T13:42:06.547Z,55.23
2022-09-07T13:44:34.381Z,54.74
2022-09-07T13:47:24.967Z,55.57
2022-09-07T13:49:58.048Z,56.26
2022-09-07T13:52:38.220Z,56.55
2022-09-07T13:55:31.867Z,56.42
2022-09-07T13:58:22.188Z,57.14
2022-09-07T14:00:58.786Z,54.98
2022-09-07T14:03:28.337Z,55.74
2022-09-07T14:06:26.784Z,56.31
2022-09-07T14:09:02.177Z,56.14
2022-09-07T14:11:46.390Z,58.44
2022-09-07T14:14:33.239Z,58.67
2022-09-07T14:16:59.752Z,58.48
2022-09-07T14:19:45.238Z,59.63
2022-09-07T14:22:15.893Z,58.66
2022-09-07T14:24:51.262Z,59.35
2022-09-07T14:27:25.324Z,59.43
2022-09-07T14:29:52.741Z,58.07
2022-09-07T14:32:24.070Z,58.27
2022-09-07T14:34:50.737Z,57.60
2022-09-07T14:37:21.321Z,56.72
2022-09-07T14:39:49.423Z,56.27
2022-09-07T14:42:25.093Z,56.54
2022-09-07T14:45:23.589Z,55.64
2022-09-07T14:47:52.754Z,56.42
2022-09-07T14:50:21.003Z,56.75
2022-09-07T14:55:42.003Z,57.92
2022-09-07T14:58:14.230Z,58.36
2022-09-07T15:00:41.000Z,58.42
2022-09-07T15:03:31.716Z,57.92
2022-09-07T15:06:02.965Z,57.54
2022-09-07T15:08:43.640Z,57.27
2022-09-07T15:11:34.517Z,56.99
2022-09-07T15:14:08.712Z,57.10
2022-09-07T15:16:38.986Z,58.23
2022-09-07T15:19:18.531Z,58.08
2022-09-07T15:21:45.602Z,58.03
2022-09-07T15:24:12.425Z,57.74
2022-09-07T15:27:04.286Z,56.29
2022-09-07T15:29:31.654Z,55.94
2022-09-07T15:32:03.814Z,55.87
2022-09-07T15:34:32.453Z,56.22
2022-09-07T15:37:01.056Z,56.57
2022-09-07T15:39:29.829Z,56.65
2022-09-07T15:41:57.015Z,56.62
2022-09-07T15:44:26.521Z,56.92
2022-09-07T15:49:45.991Z,57.26
2022-09-07T15:52:16.082Z,57.15
2022-09-07T15:54:43.473Z,57.38
2022-09-07T15:59:57.234Z,57.68
2022-09-07T16:05:10.705Z,57.01
2022-09-07T16:10:24.462Z,57.16
2022-09-07T16:15:47.834Z,57.32
2022-09-07T16:18:17.037Z,57.59
2022-09-07T16:20:44.360Z,57.65
2022-09-07T16:23:14.684Z,57.73
2022-09-07T16:25:43.381Z,58.09
2022-09-07T16:28:10.839Z,58.12
2022-09-07T16:30:40.867Z,57.27
2022-09-07T16:33:08.282Z,57.32
2022-09-07T16:35:34.920Z,57.34
2022-09-07T16:40:50.083Z,57.24
2022-09-07T16:43:16.866Z,57.74
2022-09-07T16:48:34.620Z,57.67
2022-09-07T16:51:02.998Z,57.58
2022-09-07T16:53:31.271Z,58.02
2022-09-07T16:56:09.635Z,58.10
2022-09-07T16:58:38.883Z,58.81
2022-09-07T17:01:07.247Z,59.05
2022-09-07T17:03:34.743Z,58.88
2022-09-07T17:06:01.808Z,59.91
2022-09-07T17:08:28.768Z,61.65
2022-09-07T17:11:03.610Z,62.12
2022-09-07T17:13:34.220Z,63.16
2022-09-07T17:16:05.591Z,66.04
2022-09-07T17:21:20.073Z,69.94
2022-09-07T17:23:54.220Z,74.24
2022-09-07T17:26:22.531Z,70.92
2022-09-07T17:28:50.795Z,71.20
2022-09-07T17:34:10.318Z,78.13
2022-09-07T17:36:36.767Z,80.08
2022-09-07T17:39:19.679Z,82.15
2022-09-07T17:41:52.738Z,85.03
2022-09-07T17:44:19.703Z,86.23
2022-09-07T17:46:46.232Z,90.22
2022-09-07T17:49:14.432Z,88.68
2022-09-07T17:51:41.411Z,96.90
2022-09-07T17:54:12.791Z,90.32
2022-09-07T17:56:40.165Z,97.77
2022-09-07T18:01:54.245Z,95.17
2022-09-07T18:04:21.137Z,99.22
2022-09-07T18:06:47.759Z,94.09
2022-09-07T18:09:14.341Z,97.16
2022-09-07T18:11:47.121Z,94.32
2022-09-07T18:14:15.280Z,90.32
2022-09-07T18:16:43.920Z,91.28
2022-09-07T18:19:11.960Z,89.21
2022-09-07T18:21:40.913Z,95.53
2022-09-07T18:24:13.556Z,88.98
2022-09-07T18:26:41.000Z,89.43
2022-09-07T18:29:18.920Z,87.80
2022-09-07T18:31:53.777Z,89.35
2022-09-07T18:34:20.680Z,88.48
2022-09-07T18:36:47.329Z,87.23
2022-09-07T18:39:13.751Z,88.88
2022-09-07T18:41:40.882Z,86.71
2022-09-07T18:45:27.258Z,84.31
2022-09-07T18:46:54.381Z,87.70
2022-09-07T18:49:20.882Z,86.97
2022-09-07T18:54:33.928Z,88.32
2022-09-07T18:57:00.487Z,88.80
2022-09-07T18:59:27.017Z,89.59
2022-09-07T19:01:54.148Z,88.69
2022-09-07T19:04:21.173Z,89.42
2022-09-07T19:06:48.020Z,88.59
2022-09-07T19:09:14.595Z,88.75
2022-09-07T19:11:42.200Z,86.02
2022-09-07T19:14:09.086Z,84.84
2022-09-07T19:16:36.342Z,85.01
2022-09-07T19:19:06.032Z,85.66
2022-09-07T19:21:37.059Z,83.69
2022-09-07T19:24:10.975Z,85.81
2022-09-07T19:26:40.531Z,85.01
2022-09-07T19:29:15.410Z,86.14
2022-09-07T19:31:44.900Z,85.44
2022-09-07T19:34:11.710Z,86.45
2022-09-07T19:36:39.095Z,83.14
2022-09-07T19:39:05.898Z,83.63
2022-09-07T19:41:34.090Z,82.13
2022-09-07T19:44:00.605Z,80.90
2022-09-07T19:46:27.258Z,81.91
2022-09-07T19:48:53.776Z,84.43
2022-09-07T19:51:20.350Z,85.56
2022-09-07T19:53:47.213Z,84.14
2022-09-07T19:56:21.716Z,86.30
2022-09-07T19:58:49.675Z,85.46
2022-09-07T20:01:19.489Z,84.82
2022-09-07T20:03:50.145Z,84.22
2022-09-07T20:06:18.466Z,84.16
2022-09-07T20:08:45.220Z,82.88
2022-09-07T20:11:14.635Z,83.53
2022-09-07T20:13:41.551Z,84.70
2022-09-07T20:16:11.361Z,84.65
2022-09-07T20:18:38.957Z,86.95
2022-09-07T20:21:06.914Z,86.15
2022-09-07T20:23:35.031Z,87.19
2022-09-07T20:26:04.158Z,89.06
2022-09-07T20:28:31.254Z,89.11
2022-09-07T20:30:57.960Z,87.10
2022-09-07T20:33:24.682Z,89.00
2022-09-07T20:35:51.524Z,90.42
2022-09-07T20:38:20.666Z,91.22
2022-09-07T20:40:51.595Z,89.20
2022-09-07T20:43:18.467Z,88.97
2022-09-07T20:45:44.987Z,88.15
2022-09-07T20:48:11.542Z,88.12
2022-09-07T20:50:38.123Z,88.55
2022-09-07T20:53:04.567Z,89.62
2022-09-07T20:55:31.082Z,89.23
2022-09-07T20:57:57.496Z,88.30
2022-09-07T21:00:24.990Z,88.49
2022-09-07T21:02:51.532Z,87.98
2022-09-07T21:05:18.124Z,87.55
2022-09-07T21:07:44.594Z,88.45
2022-09-07T21:10:11.174Z,89.37
2022-09-07T21:12:37.712Z,90.78
2022-09-07T21:15:04.519Z,90.21
2022-09-07T21:17:30.973Z,88.86
2022-09-07T21:19:57.399Z,88.79
2022-09-07T21:22:23.851Z,88.94
2022-09-07T21:24:50.275Z,90.05
2022-09-07T21:27:16.840Z,88.82
2022-09-07T21:29:43.273Z,88.70
2022-09-07T21:32:09.740Z,83.31
2022-09-07T21:34:36.176Z,86.46
2022-09-07T21:37:02.678Z,88.15
2022-09-07T21:39:29.396Z,88.98
2022-09-07T21:41:55.966Z,91.05
2022-09-07T21:44:22.506Z,89.13
2022-09-07T21:46:49.021Z,90.36
2022-09-07T21:49:15.479Z,90.32
2022-09-07T21:51:42.161Z,87.28
2022-09-07T21:54:08.747Z,88.38
2022-09-07T21:56:35.526Z,88.10
2022-09-07T21:59:02.644Z,90.21
2022-09-07T22:01:30.404Z,90.35
2022-09-07T22:04:21.071Z,90.89
2022-09-07T22:06:47.635Z,90.75
2022-09-07T22:09:14.152Z,88.28
2022-09-07T22:11:44.163Z,85.40
2022-09-07T22:14:13.503Z,85.18
2022-09-07T22:16:40.001Z,83.53
2022-09-07T22:19:06.674Z,87.45
2022-09-07T22:21:33.891Z,89.20
2022-09-07T22:24:03.124Z,89.86
2022-09-07T22:26:31.965Z,90.01
2022-09-07T22:28:58.771Z,90.39
2022-09-07T22:31:28.198Z,90.29
2022-09-07T22:33:56.750Z,91.24
2022-09-07T22:36:26.510Z,91.12
2022-09-07T22:38:55.062Z,91.32
2022-09-07T22:41:25.815Z,90.65
2022-09-07T22:43:52.290Z,92.95
2022-09-07T22:46:20.843Z,93.15
2022-09-07T22:48:47.733Z,93.00
2022-09-07T22:51:15.328Z,92.30
2022-09-07T22:53:43.654Z,91.40
2022-09-07T22:56:12.696Z,92.81
2022-09-07T22:58:39.464Z,91.97
2022-09-07T23:01:06.519Z,91.55
2022-09-07T23:03:34.772Z,92.42
2022-09-07T23:06:01.731Z,93.24
2022-09-07T23:08:28.274Z,93.51
2022-09-07T23:10:54.861Z,94.23
2022-09-07T23:13:22.170Z,93.39
2022-09-07T23:15:49.554Z,94.23
2022-09-07T23:18:18.230Z,94.06
2022-09-07T23:20:44.974Z,93.97
2022-09-07T23:23:12.096Z,94.58
2022-09-07T23:25:42.689Z,93.99
2022-09-07T23:28:12.209Z,94.07
2022-09-07T23:30:42.491Z,91.05
2022-09-07T23:33:08.954Z,92.55
2022-09-07T23:35:35.382Z,93.57
2022-09-07T23:38:01.968Z,94.18
2022-09-07T23:40:30.341Z,94.84
2022-09-07T23:42:57.216Z,94.27
2022-09-07T23:45:24.248Z,94.09
2022-09-07T23:47:50.999Z,93.72
2022-09-07T23:50:17.854Z,93.06
2022-09-07T23:52:44.411Z,94.44
2022-09-07T23:55:11.145Z,93.95
2022-09-07T23:57:38.630Z,93.43
